Time;durP1;ratioP1;P1;durP2;ratioP2;P2;SDS_P1;SDS_P2;PMS_P1;PMS_P2;Temp;Humidity;BMP_temperature;BMP_pressure;BME280_temperature;BME280_humidity;BME280_pressure;Samples;Min_cycle;Max_cycle;Signal;HPM_P1;HPM_P2
2021/07/16 00:01:37;;;;;;;1.05;0.52;;;21.00;80.00;;;;;;2253336;55;21869;-76
2021/07/16 00:04:04;;;;;;;1.20;0.57;;;21.00;79.90;;;;;;2242336;56;21003;-75
2021/07/16 00:06:30;;;;;;;1.50;0.70;;;21.00;80.00;;;;;;2285881;56;21153;-75
2021/07/16 00:08:58;;;;;;;1.42;0.70;;;21.00;79.90;;;;;;2243438;55;21138;-75
2021/07/16 00:11:24;;;;;;;1.25;0.52;;;21.00;79.80;;;;;;2257195;55;20967;-77
2021/07/16 00:13:50;;;;;;;1.42;0.68;;;21.00;79.80;;;;;;2246812;55;20969;-75
2021/07/16 00:16:19;;;;;;;1.45;0.70;;;21.00;79.80;;;;;;2241892;56;21055;-75
2021/07/16 00:18:46;;;;;;;1.17;0.60;;;21.10;79.80;;;;;;2300172;55;21075;-75
2021/07/16 00:21:14;;;;;;;1.80;0.90;;;21.10;79.70;;;;;;2251452;55;20961;-76
2021/07/16 00:23:49;;;;;;;2.05;0.98;;;21.10;79.70;;;;;;2236584;56;21537;-74
2021/07/16 00:26:15;;;;;;;3.35;1.00;;;21.00;79.40;;;;;;2242609;56;21333;-75
2021/07/16 00:28:43;;;;;;;3.62;1.20;;;21.00;79.30;;;;;;2238672;56;21121;-75
2021/07/16 00:31:09;;;;;;;2.30;0.80;;;21.10;79.40;;;;;;2245859;55;21080;-75
2021/07/16 00:33:39;;;;;;;1.77;0.82;;;21.00;79.10;;;;;;2236721;56;21022;-75
2021/07/16 00:36:06;;;;;;;1.67;0.73;;;21.00;79.10;;;;;;2240046;56;21010;-75
2021/07/16 00:38:32;;;;;;;2.80;0.95;;;21.00;79.30;;;;;;2223320;56;21062;-74
2021/07/16 00:40:59;;;;;;;2.28;1.00;;;21.00;79.20;;;;;;2387171;55;21521;-76
2021/07/16 00:43:25;;;;;;;2.62;0.90;;;21.00;79.10;;;;;;2233270;56;21149;-75
2021/07/16 00:45:51;;;;;;;2.42;0.93;;;21.00;79.10;;;;;;2248762;55;21588;-75
2021/07/16 00:48:18;;;;;;;2.62;0.80;;;21.00;79.30;;;;;;2449742;55;21478;-75
2021/07/16 00:50:45;;;;;;;1.83;0.77;;;21.00;79.40;;;;;;2337297;55;21006;-77
2021/07/16 00:53:15;;;;;;;1.50;0.70;;;21.00;79.40;;;;;;2286444;56;21921;-75
2021/07/16 00:55:43;;;;;;;1.70;0.80;;;21.00;79.40;;;;;;2436105;55;21102;-74
2021/07/16 00:58:09;;;;;;;2.03;0.82;;;21.00;79.30;;;;;;2331646;55;21074;-75
2021/07/16 01:00:35;;;;;;;2.12;0.80;;;21.00;79.30;;;;;;2231656;56;21015;-74
2021/07/16 01:03:03;;;;;;;2.95;0.90;;;21.00;79.10;;;;;;2387524;55;20995;-75
2021/07/16 01:05:31;;;;;;;1.10;0.60;;;21.00;79.10;;;;;;2235296;56;20954;-75
2021/07/16 01:07:58;;;;;;;2.58;0.82;;;21.00;79.10;;;;;;2220608;56;21009;-76
2021/07/16 01:10:24;;;;;;;1.92;0.80;;;21.00;79.10;;;;;;2244544;56;21111;-75
2021/07/16 01:12:51;;;;;;;2.30;0.80;;;21.00;78.90;;;;;;2232848;56;21531;-74
2021/07/16 01:15:22;;;;;;;2.00;0.90;;;20.90;78.70;;;;;;2275265;56;21026;-75
2021/07/16 01:17:48;;;;;;;1.62;0.70;;;20.90;78.60;;;;;;2247670;55;21081;-75
2021/07/16 01:20:16;;;;;;;2.05;0.75;;;20.90;78.60;;;;;;2281787;55;21506;-74
2021/07/16 01:22:44;;;;;;;2.12;0.90;;;20.90;78.70;;;;;;2287517;55;20958;-77
2021/07/16 01:25:18;;;;;;;1.30;0.60;;;20.80;78.70;;;;;;2238584;56;20982;-74
2021/07/16 01:27:46;;;;;;;2.15;0.60;;;20.80;78.60;;;;;;2239800;56;20974;-75
2021/07/16 01:30:12;;;;;;;0.80;0.52;;;20.80;78.60;;;;;;2236639;56;20934;-75
2021/07/16 01:32:39;;;;;;;1.85;0.90;;;20.80;78.60;;;;;;2237884;56;21086;-75
2021/07/16 01:35:05;;;;;;;1.10;0.60;;;20.80;78.50;;;;;;2243162;56;20990;-75
2021/07/16 01:37:32;;;;;;;1.70;0.90;;;20.70;78.00;;;;;;2252149;55;20993;-74
2021/07/16 01:39:59;;;;;;;1.52;0.50;;;20.70;77.90;;;;;;2334360;55;21875;-75
2021/07/16 01:42:33;;;;;;;1.08;0.50;;;20.70;77.90;;;;;;2242468;56;20994;-74
2021/07/16 01:45:00;;;;;;;1.20;0.52;;;20.60;77.70;;;;;;2281362;55;20965;-75
2021/07/16 01:47:26;;;;;;;1.30;0.55;;;20.60;77.90;;;;;;2236320;56;21042;-75
2021/07/16 01:49:53;;;;;;;4.80;0.52;;;20.60;78.00;;;;;;2381004;55;21103;-76
2021/07/16 01:52:19;;;;;;;2.37;0.70;;;20.60;78.00;;;;;;2355946;55;20917;-73
2021/07/16 01:54:46;;;;;;;2.72;0.57;;;20.50;77.90;;;;;;2335535;55;21141;-75
2021/07/16 01:57:12;;;;;;;2.00;0.75;;;20.40;77.90;;;;;;2236415;56;20978;-74
2021/07/16 01:59:41;;;;;;;1.73;0.60;;;20.50;78.00;;;;;;2240133;56;20950;-75
2021/07/16 02:02:08;;;;;;;1.27;0.60;;;20.50;78.00;;;;;;2352057;55;20915;-76
2021/07/16 02:04:34;;;;;;;2.03;0.70;;;20.40;78.00;;;;;;2235720;55;21013;-74
2021/07/16 02:07:01;;;;;;;1.55;0.68;;;20.40;78.00;;;;;;2360564;55;21409;-75
2021/07/16 02:09:29;;;;;;;1.83;0.70;;;20.40;78.10;;;;;;2241125;56;21086;-74
2021/07/16 02:11:58;;;;;;;2.20;0.50;;;20.40;78.20;;;;;;2243841;56;20986;-75
2021/07/16 02:14:25;;;;;;;1.77;0.70;;;20.30;78.10;;;;;;2246086;55;21158;-75
2021/07/16 02:16:54;;;;;;;1.70;0.60;;;20.30;78.10;;;;;;2276381;56;21018;-75
2021/07/16 02:19:21;;;;;;;2.15;0.80;;;20.30;78.10;;;;;;2242935;56;21066;-75
2021/07/16 02:21:48;;;;;;;2.08;0.80;;;20.30;78.20;;;;;;2244615;56;20986;-76
2021/07/16 02:24:14;;;;;;;1.98;0.80;;;20.30;78.10;;;;;;2272646;55;21046;-75
2021/07/16 02:26:40;;;;;;;5.43;0.80;;;20.30;78.20;;;;;;2238740;56;21014;-76
2021/07/16 02:29:06;;;;;;;1.30;0.70;;;20.20;78.00;;;;;;2239721;56;21388;-75
2021/07/16 02:31:36;;;;;;;1.25;0.60;;;20.20;77.90;;;;;;2275186;56;20954;-75
2021/07/16 02:34:02;;;;;;;2.50;0.70;;;20.20;78.00;;;;;;2386065;55;21110;-75
2021/07/16 02:36:30;;;;;;;1.65;0.60;;;20.20;78.00;;;;;;2264044;56;20994;-75
2021/07/16 02:38:56;;;;;;;2.03;0.70;;;20.10;77.90;;;;;;2332327;55;20958;-75
2021/07/16 02:41:22;;;;;;;1.62;0.77;;;20.10;77.80;;;;;;2249675;55;21097;-75
2021/07/16 02:43:49;;;;;;;1.25;0.62;;;20.10;77.80;;;;;;2365086;55;21462;-75
2021/07/16 02:46:15;;;;;;;1.58;0.77;;;20.10;77.90;;;;;;2238477;56;21440;-76
2021/07/16 02:48:41;;;;;;;1.70;0.80;;;20.00;77.70;;;;;;2240008;56;21517;-74
2021/07/16 02:51:08;;;;;;;1.55;0.70;;;20.00;77.60;;;;;;2238117;56;21114;-75
2021/07/16 02:53:35;;;;;;;2.60;1.10;;;20.00;77.60;;;;;;2262912;55;20994;-76
2021/07/16 02:56:03;;;;;;;1.25;0.60;;;20.00;77.60;;;;;;2312079;55;20990;-76
2021/07/16 02:58:30;;;;;;;1.35;0.60;;;19.90;77.50;;;;;;2245254;55;21017;-75
2021/07/16 03:00:56;;;;;;;3.25;0.85;;;20.00;77.70;;;;;;2237457;56;20963;-75
2021/07/16 03:03:27;;;;;;;2.22;0.60;;;19.90;77.60;;;;;;2257759;55;21070;-75
2021/07/16 03:05:56;;;;;;;1.70;0.80;;;19.90;77.70;;;;;;2398432;55;21490;-74
2021/07/16 03:08:23;;;;;;;1.58;0.70;;;19.90;77.80;;;;;;2461526;55;21023;-76
2021/07/16 03:10:49;;;;;;;1.35;0.70;;;19.80;77.80;;;;;;2240579;55;20970;-75
2021/07/16 03:13:17;;;;;;;6.47;1.10;;;19.80;77.90;;;;;;2357480;56;20970;-75
2021/07/16 03:15:43;;;;;;;1.70;0.70;;;19.80;78.00;;;;;;2455382;55;21560;-75
2021/07/16 03:18:10;;;;;;;1.62;0.73;;;19.80;78.10;;;;;;2239793;56;21058;-74
2021/07/16 03:20:39;;;;;;;1.67;0.80;;;19.80;78.20;;;;;;2256430;55;21058;-75
2021/07/16 03:23:05;;;;;;;2.03;0.80;;;19.80;78.20;;;;;;2241279;55;21562;-74
2021/07/16 03:25:35;;;;;;;1.62;0.70;;;19.70;78.10;;;;;;2239294;56;21006;-74
2021/07/16 03:28:05;;;;;;;1.12;0.55;;;19.70;78.30;;;;;;2248078;55;21022;-74
2021/07/16 03:30:31;;;;;;;1.58;0.75;;;19.80;78.50;;;;;;2239846;55;20965;-76
2021/07/16 03:32:58;;;;;;;1.95;0.80;;;19.70;78.40;;;;;;2379023;55;21746;-76
2021/07/16 03:35:24;;;;;;;1.20;0.60;;;19.70;78.50;;;;;;2242528;56;21001;-76
2021/07/16 03:37:52;;;;;;;1.50;0.70;;;19.70;78.40;;;;;;2246411;55;20979;-73
2021/07/16 03:40:23;;;;;;;1.60;0.65;;;19.70;78.50;;;;;;2452949;55;20999;-76
2021/07/16 03:42:49;;;;;;;1.20;0.60;;;19.70;78.40;;;;;;2331380;55;20970;-74
2021/07/16 03:45:18;;;;;;;1.23;0.60;;;19.70;78.40;;;;;;2247369;55;21038;-74
2021/07/16 03:47:53;;;;;;;1.17;0.55;;;19.70;78.40;;;;;;2244680;55;21125;-74
2021/07/16 03:50:21;;;;;;;2.17;0.57;;;19.70;78.30;;;;;;2238722;56;21024;-77
2021/07/16 03:52:48;;;;;;;2.15;0.68;;;19.70;78.30;;;;;;2222148;56;20974;-77
2021/07/16 03:55:15;;;;;;;1.48;0.60;;;19.70;78.30;;;;;;2237511;56;20986;-75
2021/07/16 03:57:45;;;;;;;1.10;0.50;;;19.70;78.30;;;;;;2243367;56;20922;-74
2021/07/16 04:00:13;;;;;;;1.75;0.60;;;19.70;78.20;;;;;;2238980;56;21193;-76
2021/07/16 04:02:39;;;;;;;1.10;0.60;;;19.70;78.30;;;;;;2259218;55;20997;-77
2021/07/16 04:05:09;;;;;;;1.52;0.77;;;19.70;78.30;;;;;;2267871;55;21035;-74
2021/07/16 04:07:41;;;;;;;1.40;0.68;;;19.60;78.20;;;;;;2431572;55;21018;-74
2021/07/16 04:10:08;;;;;;;1.43;0.73;;;19.60;78.30;;;;;;2235050;56;20974;-76
2021/07/16 04:12:35;;;;;;;1.58;0.62;;;19.60;78.30;;;;;;2237699;56;20945;-75
2021/07/16 04:15:05;;;;;;;1.92;0.75;;;19.60;78.30;;;;;;2372485;56;21007;-74
2021/07/16 04:17:32;;;;;;;1.73;0.80;;;19.60;78.40;;;;;;2297062;55;20950;-77
2021/07/16 04:19:59;;;;;;;1.52;0.65;;;19.60;78.50;;;;;;2311755;55;20986;-74
2021/07/16 04:22:27;;;;;;;2.40;0.90;;;19.60;78.50;;;;;;2322559;55;21017;-75
2021/07/16 04:24:54;;;;;;;2.08;0.88;;;19.60;78.50;;;;;;2243424;55;20969;-74
2021/07/16 04:27:23;;;;;;;1.58;0.60;;;19.60;78.60;;;;;;2240705;56;21002;-77
2021/07/16 04:29:49;;;;;;;1.70;0.70;;;19.60;78.60;;;;;;2334027;55;21056;-74
2021/07/16 04:32:16;;;;;;;2.15;0.88;;;19.60;78.60;;;;;;2286398;55;22025;-75
2021/07/16 04:34:43;;;;;;;2.97;0.80;;;19.60;78.70;;;;;;2342481;55;21158;-73
2021/07/16 04:37:10;;;;;;;1.75;0.73;;;19.60;78.70;;;;;;2239477;56;21074;-74
2021/07/16 04:39:36;;;;;;;1.37;0.70;;;19.60;78.70;;;;;;2257191;55;20969;-74
2021/07/16 04:42:04;;;;;;;1.35;0.52;;;19.60;78.80;;;;;;2235430;55;20954;-76
2021/07/16 04:44:33;;;;;;;1.73;0.73;;;19.60;78.90;;;;;;2240246;56;21090;-77
2021/07/16 04:46:59;;;;;;;1.48;0.70;;;19.60;79.00;;;;;;2430751;55;21098;-75
2021/07/16 04:49:28;;;;;;;3.58;1.73;;;19.60;79.10;;;;;;2253673;56;20986;-75
2021/07/16 04:51:54;;;;;;;3.10;1.48;;;19.60;79.10;;;;;;2235788;56;20927;-74
2021/07/16 04:54:21;;;;;;;3.85;1.95;;;19.60;79.20;;;;;;2219507;56;21055;-74
2021/07/16 04:56:47;;;;;;;3.20;1.50;;;19.60;79.30;;;;;;2237510;56;21391;-74
2021/07/16 04:59:14;;;;;;;3.40;1.83;;;19.60;79.40;;;;;;2239434;56;21270;-75
2021/07/16 05:01:41;;;;;;;3.10;1.50;;;19.60;79.40;;;;;;2436994;55;20946;-74
2021/07/16 05:04:10;;;;;;;2.87;1.50;;;19.70;79.60;;;;;;2301993;56;20990;-75
2021/07/16 05:06:39;;;;;;;1.90;1.00;;;19.70;80.20;;;;;;2243580;56;20983;-74
2021/07/16 05:09:06;;;;;;;2.45;1.23;;;19.70;79.60;;;;;;2247873;55;21004;-76
2021/07/16 05:11:32;;;;;;;3.37;1.12;;;19.70;79.60;;;;;;2345125;55;20946;-75
2021/07/16 05:14:01;;;;;;;2.12;1.10;;;19.70;79.80;;;;;;2238465;55;21058;-77
2021/07/16 05:16:27;;;;;;;4.03;1.20;;;19.70;79.90;;;;;;2241305;55;21877;-74
2021/07/16 05:18:54;;;;;;;2.95;1.20;;;19.80;80.10;;;;;;2241814;56;21066;-74
2021/07/16 05:21:20;;;;;;;3.37;1.30;;;19.80;80.30;;;;;;2290294;56;20947;-75
2021/07/16 05:23:46;;;;;;;2.17;1.08;;;19.80;80.30;;;;;;2242541;56;21063;-75
2021/07/16 05:26:13;;;;;;;2.75;1.25;;;19.90;80.50;;;;;;2454887;55;20994;-75
2021/07/16 05:28:39;;;;;;;2.40;1.10;;;19.90;80.50;;;;;;2245281;56;21483;-76
2021/07/16 05:31:05;;;;;;;3.17;1.25;;;19.90;80.50;;;;;;2242364;56;20958;-74
2021/07/16 05:33:32;;;;;;;3.30;1.85;;;20.00;80.70;;;;;;2244756;56;20959;-74
2021/07/16 05:35:59;;;;;;;2.87;1.40;;;20.00;80.70;;;;;;2451660;55;21497;-77
2021/07/16 05:38:26;;;;;;;3.30;1.33;;;20.10;80.80;;;;;;2248101;55;20919;-75
2021/07/16 05:40:53;;;;;;;2.65;1.20;;;20.10;81.40;;;;;;2242911;55;21111;-75
2021/07/16 05:43:19;;;;;;;2.90;1.15;;;20.20;81.00;;;;;;2281984;55;21050;-76
2021/07/16 05:45:46;;;;;;;1.75;0.90;;;20.20;81.10;;;;;;2281998;55;21045;-73
2021/07/16 05:48:12;;;;;;;3.30;1.23;;;20.20;81.10;;;;;;2256658;55;21083;-75
2021/07/16 05:50:39;;;;;;;1.98;1.00;;;20.30;81.10;;;;;;2418804;55;20994;-75
2021/07/16 05:53:07;;;;;;;3.62;1.23;;;20.30;81.00;;;;;;2256093;55;20985;-77
2021/07/16 05:55:34;;;;;;;2.50;1.17;;;20.40;81.20;;;;;;2247407;55;20983;-74
2021/07/16 05:58:02;;;;;;;2.17;1.20;;;20.40;81.20;;;;;;2237883;56;20945;-77
2021/07/16 06:00:31;;;;;;;2.50;1.33;;;20.40;81.20;;;;;;2285668;55;21787;-75
2021/07/16 06:02:58;;;;;;;2.83;1.20;;;20.50;81.20;;;;;;2463408;55;21010;-74
2021/07/16 06:05:24;;;;;;;2.40;1.27;;;20.50;81.20;;;;;;2246805;55;21802;-76
2021/07/16 06:07:51;;;;;;;2.87;1.50;;;20.60;81.40;;;;;;2238748;56;21732;-75
2021/07/16 06:10:17;;;;;;;3.83;1.85;;;20.60;81.30;;;;;;2402502;55;21574;-75
2021/07/16 06:12:44;;;;;;;2.85;1.55;;;20.70;81.40;;;;;;2342224;55;21034;-74
2021/07/16 06:15:11;;;;;;;6.25;1.60;;;20.70;81.40;;;;;;2243201;56;21057;-76
2021/07/16 06:17:37;;;;;;;3.50;1.75;;;20.80;81.40;;;;;;2268653;55;21614;-76
2021/07/16 06:20:06;;;;;;;3.72;1.58;;;20.80;81.40;;;;;;2355282;55;20922;-77
2021/07/16 06:22:34;;;;;;;3.67;1.62;;;20.90;81.30;;;;;;2242046;56;20975;-75
2021/07/16 06:25:00;;;;;;;3.03;1.62;;;21.00;81.30;;;;;;2238406;56;21093;-74
2021/07/16 06:27:27;;;;;;;3.35;1.60;;;21.00;81.30;;;;;;2243963;56;20967;-74
2021/07/16 06:29:53;;;;;;;3.30;1.92;;;21.10;81.40;;;;;;2259235;55;21681;-75
2021/07/16 06:32:19;;;;;;;2.92;1.90;;;21.10;81.40;;;;;;2238062;55;21014;-76
2021/07/16 06:34:45;;;;;;;2.53;1.40;;;21.20;81.60;;;;;;2240442;56;20986;-76
2021/07/16 06:37:12;;;;;;;3.78;2.08;;;21.20;81.80;;;;;;2245974;55;21097;-75
2021/07/16 06:39:38;;;;;;;3.53;1.77;;;21.30;81.90;;;;;;2239157;55;21029;-75
2021/07/16 06:42:06;;;;;;;3.90;2.20;;;21.30;81.60;;;;;;2240347;56;21014;-75
2021/07/16 06:44:32;;;;;;;3.70;2.25;;;21.40;81.70;;;;;;2351711;55;20957;-75
2021/07/16 06:46:59;;;;;;;3.75;2.25;;;21.50;82.00;;;;;;2251726;55;21069;-76
2021/07/16 06:49:28;;;;;;;3.65;2.50;;;21.50;81.90;;;;;;2242440;55;21010;-75
2021/07/16 06:51:55;;;;;;;3.45;2.20;;;21.60;81.80;;;;;;2291815;55;20958;-75
2021/07/16 06:54:22;;;;;;;3.20;2.15;;;21.70;81.60;;;;;;2238704;56;21005;-74
2021/07/16 06:56:48;;;;;;;3.55;2.15;;;21.70;81.20;;;;;;2237580;56;21016;-75
2021/07/16 06:59:14;;;;;;;3.95;2.30;;;21.70;80.80;;;;;;2296165;55;20914;-76
2021/07/16 07:01:41;;;;;;;3.08;1.77;;;21.80;80.60;;;;;;2240613;56;20982;-75
2021/07/16 07:04:07;;;;;;;3.87;1.90;;;21.80;80.40;;;;;;2323968;56;21529;-76
2021/07/16 07:06:34;;;;;;;3.53;1.40;;;21.80;80.30;;;;;;2358267;55;20958;-77
2021/07/16 07:09:01;;;;;;;3.08;1.60;;;21.80;80.10;;;;;;2269872;55;20966;-74
2021/07/16 07:11:27;;;;;;;3.20;1.50;;;21.90;80.10;;;;;;2295731;55;20945;-75
2021/07/16 07:13:53;;;;;;;2.90;1.60;;;21.90;80.30;;;;;;2253104;56;21493;-75
2021/07/16 07:16:20;;;;;;;3.45;1.62;;;21.90;80.30;;;;;;2410258;55;21038;-74
2021/07/16 07:18:47;;;;;;;3.37;1.90;;;21.90;80.30;;;;;;2239958;56;21159;-75
2021/07/16 07:21:14;;;;;;;3.53;2.12;;;21.90;80.40;;;;;;2287952;56;21070;-75
2021/07/16 07:23:42;;;;;;;6.28;2.12;;;21.90;80.30;;;;;;2251390;56;20970;-74
2021/07/16 07:26:08;;;;;;;4.10;2.15;;;21.90;80.30;;;;;;2223324;56;20966;-75
2021/07/16 07:28:35;;;;;;;3.78;2.17;;;22.00;80.40;;;;;;2257172;55;20958;-75
2021/07/16 07:31:01;;;;;;;3.50;2.30;;;22.00;80.50;;;;;;2329921;55;20974;-74
2021/07/16 07:33:27;;;;;;;4.85;2.70;;;22.00;80.70;;;;;;2240110;55;21916;-74
2021/07/16 07:35:56;;;;;;;3.90;2.40;;;22.10;80.80;;;;;;2446347;55;21005;-75
2021/07/16 07:38:23;;;;;;;4.82;3.47;;;22.10;80.90;;;;;;2271793;56;21073;-74
2021/07/16 07:40:50;;;;;;;4.72;3.37;;;22.20;80.90;;;;;;2222044;56;21058;-76
2021/07/16 07:43:16;;;;;;;4.80;3.58;;;22.20;80.60;;;;;;2234737;56;20930;-75
2021/07/16 07:45:45;;;;;;;5.25;3.55;;;22.20;80.70;;;;;;2239908;56;20978;-74
2021/07/16 07:48:12;;;;;;;5.30;4.07;;;22.30;81.10;;;;;;2221287;56;21002;-75
2021/07/16 07:50:39;;;;;;;6.32;4.75;;;22.30;81.20;;;;;;2244812;55;20934;-75
2021/07/16 07:53:05;;;;;;;5.85;3.60;;;22.40;81.40;;;;;;2357207;55;21121;-77
2021/07/16 07:55:32;;;;;;;5.75;3.72;;;22.50;81.80;;;;;;2361090;56;21042;-75
2021/07/16 07:57:59;;;;;;;6.97;4.72;;;22.60;82.20;;;;;;2352598;55;21011;-75
2021/07/16 08:00:26;;;;;;;5.72;4.22;;;22.70;82.50;;;;;;2315313;56;21019;-75
2021/07/16 08:02:52;;;;;;;6.62;4.53;;;22.70;82.10;;;;;;2427753;55;21550;-75
2021/07/16 08:05:19;;;;;;;6.32;4.28;;;22.80;81.30;;;;;;2239023;56;21026;-75
2021/07/16 08:07:45;;;;;;;5.57;4.30;;;22.90;80.60;;;;;;2367444;55;21823;-74
2021/07/16 08:10:16;;;;;;;7.28;4.53;;;22.90;80.20;;;;;;2237990;56;20966;-76
2021/07/16 08:12:42;;;;;;;5.90;4.35;;;23.00;79.80;;;;;;2288166;56;20977;-75
2021/07/16 08:15:09;;;;;;;6.18;4.68;;;23.00;79.70;;;;;;2392473;55;20991;-75
2021/07/16 08:17:36;;;;;;;6.72;4.62;;;23.00;79.60;;;;;;2241607;55;21049;-75
2021/07/16 08:20:08;;;;;;;5.50;4.07;;;23.00;79.60;;;;;;2238533;56;21475;-75
2021/07/16 08:22:37;;;;;;;;;;;23.00;79.40;;;;;;2243205;56;21473;-76
2021/07/16 08:25:04;;;;;;;4.95;3.35;;;23.10;78.80;;;;;;2239499;56;20070;-77
2021/07/16 08:27:30;;;;;;;6.35;4.07;;;23.10;80.20;;;;;;2251168;56;21006;-75
2021/07/16 08:29:56;;;;;;;5.43;4.05;;;23.10;80.50;;;;;;2237795;56;21029;-76
2021/07/16 08:32:23;;;;;;;5.00;3.58;;;23.20;80.80;;;;;;2236585;56;20958;-75
2021/07/16 08:34:52;;;;;;;5.78;4.35;;;23.20;80.90;;;;;;2253796;56;20970;-75
2021/07/16 08:37:18;;;;;;;5.22;4.03;;;23.30;81.30;;;;;;2317834;55;21093;-75
2021/07/16 08:39:44;;;;;;;6.20;4.20;;;23.30;80.90;;;;;;2237212;56;20943;-75
2021/07/16 08:42:13;;;;;;;6.47;4.37;;;23.40;80.90;;;;;;2239086;56;20934;-75
2021/07/16 08:44:41;;;;;;;6.15;4.25;;;23.50;81.20;;;;;;2233009;56;20955;-76
2021/07/16 08:47:08;;;;;;;5.22;4.40;;;23.50;81.20;;;;;;2237084;56;21396;-75
2021/07/16 08:49:34;;;;;;;5.50;4.28;;;23.60;82.00;;;;;;2238523;56;21601;-75
2021/07/16 08:52:01;;;;;;;5.60;4.25;;;23.70;81.40;;;;;;2347750;56;20986;-75
2021/07/16 08:54:30;;;;;;;5.75;4.05;;;23.80;81.00;;;;;;2297955;55;21009;-75
2021/07/16 08:56:57;;;;;;;5.53;3.97;;;23.90;80.60;;;;;;2241140;56;20930;-74
2021/07/16 08:59:23;;;;;;;5.70;4.40;;;23.90;80.00;;;;;;2291988;56;21113;-77
2021/07/16 09:01:50;;;;;;;6.87;4.07;;;24.00;80.00;;;;;;2241218;55;20983;-75
2021/07/16 09:04:22;;;;;;;5.10;3.92;;;24.00;79.90;;;;;;2235016;55;20988;-75
2021/07/16 09:06:52;;;;;;;4.43;3.20;;;24.00;80.10;;;;;;2237523;55;20958;-74
2021/07/16 09:09:23;;;;;;;4.97;3.45;;;24.10;80.00;;;;;;2309684;56;21054;-77
2021/07/16 09:11:51;;;;;;;4.25;3.08;;;24.10;79.80;;;;;;2458415;55;20978;-74
2021/07/16 09:14:56;;;;;;;4.65;3.12;;;24.20;79.20;;;;;;2311392;55;20958;-75
2021/07/16 09:17:26;;;;;;;4.50;3.12;;;24.20;77.40;;;;;;2243024;55;21871;-76
2021/07/16 09:19:52;;;;;;;3.70;2.83;;;24.20;78.30;;;;;;2242495;55;20966;-77
2021/07/16 09:22:23;;;;;;;4.25;2.95;;;24.30;78.40;;;;;;2256161;55;20911;-74
2021/07/16 09:24:53;;;;;;;3.60;2.70;;;24.30;77.60;;;;;;2242187;55;21026;-77
2021/07/16 09:27:36;;;;;;;3.78;2.80;;;24.30;77.80;;;;;;2256614;55;21108;-75
2021/07/16 09:31:13;;;;;;;3.67;2.83;;;24.30;77.40;;;;;;2239997;56;20978;-75
2021/07/16 09:34:40;;;;;;;3.67;2.75;;;24.40;77.50;;;;;;2299643;55;20967;-74
2021/07/16 09:37:08;;;;;;;3.97;2.78;;;24.40;79.30;;;;;;2243114;56;21562;-75
2021/07/16 09:39:35;;;;;;;4.40;2.90;;;24.40;79.20;;;;;;2226210;56;21513;-75
2021/07/16 09:42:02;;;;;;;3.85;2.80;;;24.50;79.40;;;;;;2236006;56;21449;-77
2021/07/16 09:44:34;;;;;;;4.03;2.65;;;24.50;79.10;;;;;;2365866;55;21066;-75
2021/07/16 09:47:20;;;;;;;3.92;2.95;;;24.60;79.00;;;;;;2352015;55;20981;-74
2021/07/16 09:49:51;;;;;;;4.35;2.90;;;24.60;78.20;;;;;;2451547;55;21046;-75
2021/07/16 09:52:20;;;;;;;4.00;2.62;;;24.70;79.20;;;;;;2238764;56;21026;-75
2021/07/16 09:55:05;;;;;;;3.90;2.72;;;24.70;78.40;;;;;;2244950;56;20982;-74
2021/07/16 09:57:57;;;;;;;4.22;2.83;;;24.80;77.00;;;;;;2361120;55;21782;-76
2021/07/16 10:00:26;;;;;;;4.60;3.17;;;24.80;77.90;;;;;;2239166;56;21050;-75
2021/07/16 10:02:53;;;;;;;3.70;2.42;;;24.90;79.20;;;;;;2237294;56;20934;-74
2021/07/16 10:05:20;;;;;;;3.58;2.50;;;25.00;79.60;;;;;;2236615;56;20978;-74
2021/07/16 10:07:50;;;;;;;3.45;1.98;;;25.00;78.80;;;;;;2238485;56;20996;-76
2021/07/16 10:10:20;;;;;;;3.42;2.20;;;25.10;78.70;;;;;;2238886;56;21042;-74
2021/07/16 10:12:51;;;;;;;3.15;2.10;;;25.10;77.50;;;;;;2279400;56;21930;-74
2021/07/16 10:15:23;;;;;;;3.10;2.25;;;25.10;77.40;;;;;;2233692;55;20998;-74
2021/07/16 10:17:50;;;;;;;6.45;3.50;;;25.20;77.80;;;;;;2241719;56;20958;-74
2021/07/16 10:20:19;;;;;;;3.60;2.67;;;25.10;78.20;;;;;;2239321;56;20967;-75
2021/07/16 10:22:48;;;;;;;3.72;2.50;;;25.20;78.40;;;;;;2240375;56;20958;-76
2021/07/16 10:25:19;;;;;;;3.30;2.35;;;25.20;78.70;;;;;;2235506;56;21006;-73
2021/07/16 10:27:45;;;;;;;3.50;2.33;;;25.30;78.80;;;;;;2294600;56;20966;-74
2021/07/16 10:30:15;;;;;;;3.83;2.50;;;25.40;79.00;;;;;;2274394;56;21494;-76
2021/07/16 10:32:49;;;;;;;3.60;2.58;;;25.40;77.90;;;;;;2402828;55;21360;-74
2021/07/16 10:35:37;;;;;;;3.67;2.60;;;25.50;77.70;;;;;;2218806;56;21042;-74
2021/07/16 10:38:27;;;;;;;3.35;2.10;;;25.50;76.40;;;;;;2242723;56;21042;-74
2021/07/16 10:40:53;;;;;;;3.60;2.58;;;25.50;76.90;;;;;;2233198;55;20993;-75
2021/07/16 10:43:40;;;;;;;3.62;2.30;;;25.50;77.40;;;;;;2248265;55;21068;-75
2021/07/16 10:46:36;;;;;;;3.60;2.35;;;25.60;75.80;;;;;;2240676;56;21094;-75
2021/07/16 10:49:04;;;;;;;3.62;2.40;;;25.60;75.70;;;;;;2238191;56;20940;-73
2021/07/16 10:51:31;;;;;;;3.15;2.25;;;25.70;77.90;;;;;;2248623;56;21013;-75
2021/07/16 10:53:59;;;;;;;3.55;2.45;;;25.70;77.70;;;;;;2238822;56;22060;-74
2021/07/16 10:56:39;;;;;;;3.45;2.33;;;25.80;77.40;;;;;;2242535;56;21065;-74
2021/07/16 10:59:05;;;;;;;3.40;2.42;;;25.80;75.70;;;;;;2231396;56;21444;-74
2021/07/16 11:01:41;;;;;;;3.85;2.50;;;25.90;76.90;;;;;;2332082;55;20974;-74
2021/07/16 11:04:29;;;;;;;3.90;2.55;;;25.90;75.80;;;;;;2241529;56;21453;-74
2021/07/16 11:06:57;;;;;;;3.40;2.25;;;26.00;74.70;;;;;;2238424;56;20997;-74
2021/07/16 11:09:43;;;;;;;4.57;2.55;;;26.00;76.90;;;;;;2286823;55;21026;-73
2021/07/16 11:12:25;;;;;;;3.28;2.37;;;26.00;75.00;;;;;;2241149;56;21022;-74
2021/07/16 11:14:53;;;;;;;3.35;2.40;;;26.10;75.20;;;;;;2360967;55;21534;-74
2021/07/16 11:17:32;;;;;;;3.78;2.50;;;26.10;77.30;;;;;;2233383;55;21566;-74
2021/07/16 11:20:59;;;;;;;3.80;2.37;;;26.20;75.60;;;;;;2287735;55;21028;-76
2021/07/16 11:23:49;;;;;;;3.50;2.30;;;26.30;74.60;;;;;;2259621;56;21090;-76
2021/07/16 11:26:16;;;;;;;3.28;2.30;;;26.40;74.80;;;;;;2242239;55;21040;-72
2021/07/16 11:28:43;;;;;;;3.20;2.30;;;26.40;76.20;;;;;;2242789;56;21034;-75
2021/07/16 11:31:09;;;;;;;3.67;2.15;;;26.40;75.70;;;;;;2241332;55;20969;-74
2021/07/16 11:33:39;;;;;;;2.85;1.80;;;26.40;75.10;;;;;;2239200;56;21011;-74
2021/07/16 11:36:05;;;;;;;2.78;1.70;;;26.50;74.90;;;;;;2254335;55;20991;-73
2021/07/16 11:38:34;;;;;;;3.40;1.73;;;26.50;74.40;;;;;;2240984;56;21023;-74
2021/07/16 11:41:10;;;;;;;2.60;1.50;;;26.40;74.10;;;;;;2246166;55;20961;-74
2021/07/16 11:43:49;;;;;;;3.17;2.00;;;26.50;73.10;;;;;;2240677;56;21018;-74
2021/07/16 11:46:25;;;;;;;3.08;1.87;;;26.40;73.30;;;;;;2240786;56;21043;-74
2021/07/16 11:48:52;;;;;;;3.12;1.80;;;26.40;73.80;;;;;;2217919;56;21051;-73
2021/07/16 11:51:26;;;;;;;3.10;1.75;;;26.40;74.60;;;;;;2242337;56;21011;-74
2021/07/16 11:54:22;;;;;;;2.97;1.80;;;26.40;73.70;;;;;;2248858;55;20991;-74
2021/07/16 11:56:48;;;;;;;2.78;1.75;;;26.30;74.50;;;;;;2246381;56;22172;-73
2021/07/16 11:59:30;;;;;;;3.50;1.98;;;26.30;74.60;;;;;;2269970;55;21092;-73
2021/07/16 12:02:11;;;;;;;2.80;1.85;;;26.40;73.30;;;;;;2220801;56;22586;-74
2021/07/16 12:04:38;;;;;;;3.20;1.85;;;26.40;73.00;;;;;;2242054;56;21475;-74
2021/07/16 12:07:08;;;;;;;3.20;2.22;;;26.30;74.30;;;;;;2264273;55;21098;-75
2021/07/16 12:09:45;;;;;;;2.78;1.85;;;26.30;74.70;;;;;;2250053;55;21049;-75
2021/07/16 12:12:14;;;;;;;2.60;1.65;;;26.40;73.50;;;;;;2245719;56;20930;-74
2021/07/16 12:15:43;;;;;;;3.30;1.92;;;26.40;75.10;;;;;;2237868;56;21010;-74
2021/07/16 12:18:09;;;;;;;2.62;1.83;;;26.40;73.40;;;;;;2237555;56;20962;-74
2021/07/16 12:20:36;;;;;;;2.78;1.75;;;26.50;75.70;;;;;;2238033;56;21860;-74
2021/07/16 12:23:09;;;;;;;2.92;1.70;;;26.50;75.60;;;;;;2274051;55;21054;-73
2021/07/16 12:25:38;;;;;;;2.58;1.48;;;26.50;75.00;;;;;;2248189;55;21046;-73
2021/07/16 12:28:18;;;;;;;2.80;1.62;;;26.50;75.50;;;;;;2239745;55;20966;-72
2021/07/16 12:30:46;;;;;;;2.58;1.52;;;26.50;75.30;;;;;;2249196;56;21921;-74
2021/07/16 12:33:12;;;;;;;2.70;1.67;;;26.50;75.70;;;;;;2238196;56;20995;-74
2021/07/16 12:35:47;;;;;;;3.60;1.62;;;26.50;76.10;;;;;;2250882;55;21050;-74
2021/07/16 12:38:15;;;;;;;3.37;1.60;;;26.60;75.20;;;;;;2220050;56;21034;-73
2021/07/16 12:40:45;;;;;;;3.05;1.70;;;26.60;77.00;;;;;;2320041;55;21902;-74
2021/07/16 12:43:19;;;;;;;3.25;1.70;;;26.80;76.90;;;;;;2314650;55;20993;-73
2021/07/16 12:45:52;;;;;;;3.25;1.65;;;26.90;75.40;;;;;;2292264;55;21047;-74
2021/07/16 12:48:32;;;;;;;3.58;1.90;;;26.90;75.00;;;;;;2235381;55;21230;-77
2021/07/16 12:51:10;;;;;;;3.17;2.28;;;27.00;73.50;;;;;;2237788;56;20958;-74
2021/07/16 12:54:09;;;;;;;3.97;2.70;;;27.00;73.10;;;;;;2234636;56;20958;-73
2021/07/16 12:56:37;;;;;;;3.90;2.83;;;27.00;74.00;;;;;;2246311;55;21021;-77
2021/07/16 12:59:27;;;;;;;3.65;2.80;;;27.00;73.40;;;;;;2247382;55;20982;-75
2021/07/16 13:01:54;;;;;;;3.90;2.90;;;26.90;71.00;;;;;;2219844;56;20986;-77